Panda — PBCS — position and weather

sailwx.info

Track history (hours):
 
Tides and Currents Weather Stations Pressure Air Temp Water Temp Dewpoint Dewpoint Depression Visibility Wind Speed Wind Dir Waves Ship Positions

Panda

Last reported at 2016-May-26 06:32 UTC. Time now 2016-May-26 06:52 UTC.
Position N 55°59' W 003°10'.

Length 89 m; draft 3.9 m.

Type: Cargo ship. MMSI: 245014000.

Date/timePositionNaut miles runAvg speedWind from/ knotsBaromVisibWave heightAir tempDewpointWater temp
2016-May-26 06:32N 55°59' W 003°10'0 0.0
2016-May-26 05:32N 55°59' W 003°10'0 0.0
2016-May-26 04:32N 55°59' W 003°10'0 0.0
2016-May-26 03:32N 55°59' W 003°10'0 0.0
2016-May-26 02:32N 55°59' W 003°10'0 0.0
2016-May-26 01:32N 55°59' W 003°10'0 0.0
2016-May-26 00:32N 55°59' W 003°10'0 0.0
2016-May-25 23:32N 55°59' W 003°10'0 0.0
2016-May-25 22:32N 55°59' W 003°10'0 0.0
2016-May-25 21:32N 55°59' W 003°10'0 0.0
2016-May-25 20:32N 55°59' W 003°10'0 0.0
2016-May-25 19:32N 55°59' W 003°10'0 0.0
2016-May-25 18:32N 55°59' W 003°10'0 0.0
2016-May-25 17:32N 55°59' W 003°10'0 0.0
2016-May-25 16:32N 55°59' W 003°10'0 0.0
2016-May-25 15:32N 55°59' W 003°10'0 0.0
2016-May-25 14:32N 55°59' W 003°10'0 0.0
2016-May-25 13:32N 55°59' W 003°10'0 0.0
2016-May-25 12:32N 55°59' W 003°10'0 0.0
2016-May-25 11:32N 55°59' W 003°10'0 0.0
2016-May-25 10:32N 55°59' W 003°10'0 0.0
2016-May-25 09:32N 55°59' W 003°10'0 0.0
2016-May-25 08:32N 55°59' W 003°10'0 0.0
2016-May-25 07:32N 55°59' W 003°10'0 0.0
2016-May-25 06:32N 55°59' W 003°10'0 0.0
2016-May-25 05:32N 55°59' W 003°10'0 0.0
2016-May-25 04:32N 55°59' W 003°10'0 0.0
2016-May-25 03:31N 55°59' W 003°10'0 0.0
2016-May-25 02:31N 55°59' W 003°10'0 0.0
2016-May-25 01:31N 55°59' W 003°10'0 0.0
2016-May-25 00:31N 55°59' W 003°10'0 0.0
2016-May-24 23:31N 55°59' W 003°10'0 0.0
2016-May-24 22:31N 55°59' W 003°10'0 0.0
2016-May-24 21:31N 55°59' W 003°10'0 0.0
2016-May-24 20:31N 55°59' W 003°10'0 0.0
2016-May-24 19:31N 55°59' W 003°10'0 0.0
2016-May-24 18:31N 55°59' W 003°10'0 0.0
2016-May-24 17:31N 55°59' W 003°10'0 0.0
2016-May-24 16:31N 55°59' W 003°10'0 0.0
2016-May-24 15:31N 55°59' W 003°10'0 0.0
2016-May-24 14:31N 55°59' W 003°10'0 0.0
2016-May-24 13:31N 55°59' W 003°10'0 0.0
2016-May-24 12:31N 55°59' W 003°10'0 0.0
2016-May-24 11:31N 55°59' W 003°10'0 0.0
2016-May-24 10:31N 55°59' W 003°10'0 0.0
2016-May-24 09:31N 55°59' W 003°10'0 0.0
2016-May-24 08:31N 55°59' W 003°10'0 0.0
2016-May-24 07:31N 55°59' W 003°10'0 0.0
2016-May-24 06:31N 55°59' W 003°10'0 0.0
2016-May-24 05:31N 55°59' W 003°10'0 0.0
2016-May-24 04:31N 55°59' W 003°10'0 0.0
2016-May-24 03:31N 55°59' W 003°10'0 0.0
2016-May-24 02:31N 55°59' W 003°10'0 0.0
2016-May-24 01:31N 55°59' W 003°10'0 0.0
2016-May-24 00:31N 55°59' W 003°10'0 0.0
2016-May-23 23:31N 55°59' W 003°10'0 0.0
2016-May-23 22:31N 55°59' W 003°10'0 0.0
2016-May-23 21:31N 55°59' W 003°10'0 0.0
2016-May-23 20:31N 55°59' W 003°10'0 0.0
2016-May-23 19:31N 55°59' W 003°10'0 0.0
2016-May-23 18:31N 55°59' W 003°10'0 0.0
2016-May-23 17:34N 55°59' W 003°10'0 0.0
2016-May-23 16:33N 55°59' W 003°10'0 0.0
2016-May-23 15:33N 55°59' W 003°10'0 0.0
2016-May-23 14:33N 55°59' W 003°10'0 0.0
2016-May-23 13:33N 55°59' W 003°10'1 0.6
2016-May-23 12:33N 55°59' W 003°11'4 3.5
2016-May-23 11:32N 56°02' W 003°07'0 0.0
2016-May-23 10:32N 56°02' W 003°07'1 0.8
2016-May-23 09:33N 56°02' W 003°05'1010.5
2016-May-23 08:33N 56°06' W 002°47'10 9.8
2016-May-23 07:33N 56°04' W 002°30'1010.2
2016-May-23 06:33N 55°60' W 002°13'10 9.8
2016-May-23 05:30N 55°55' W 001°57'26210.5
2016-May-22 04:33N 54°08' E 005°01'10 9.9
2016-May-22 03:33N 54°00' E 005°12'1111.4
2016-May-22 02:33N 53°56' E 005°30'1211.9
2016-May-22 01:33N 53°51' E 005°48'1211.6
2016-May-22 00:33N 53°47' E 006°07'1010.1
2016-May-21 23:33N 53°39' E 006°17'1110.7
2016-May-21 22:33N 53°36' E 006°34'1010.2
2016-May-21 21:34N 53°30' E 006°48'4 4.1
2016-May-21 20:31N 53°26' E 006°51'0 0.0
2016-May-21 19:31N 53°26' E 006°51'0 0.0
2016-May-21 18:31N 53°26' E 006°51'0 0.0
2016-May-21 17:31N 53°26' E 006°51'0 0.0
2016-May-21 16:31N 53°26' E 006°51'0 0.0
2016-May-21 15:31N 53°26' E 006°51'0 0.0
2016-May-21 14:31N 53°26' E 006°51'0 0.0
2016-May-21 13:31N 53°26' E 006°51'0 0.0
2016-May-21 12:31N 53°26' E 006°51'0 0.0
2016-May-21 11:31N 53°26' E 006°51'0 0.0
2016-May-21 10:31N 53°26' E 006°51'0 0.0
2016-May-21 09:34N 53°26' E 006°51'0 0.0
2016-May-21 08:33N 53°27' E 006°51'0 0.0
2016-May-21 07:34N 53°27' E 006°51'0 0.0
2016-May-21 06:33N 53°27' E 006°51'0 0.0
2016-May-21 05:32N 53°27' E 006°51'0 0.0
2016-May-21 04:32N 53°27' E 006°51'0 0.0
2016-May-21 03:32N 53°27' E 006°51'0 0.0
2016-May-21 02:32N 53°27' E 006°51'0 0.0
2016-May-21 01:32N 53°27' E 006°51'0 0.0
2016-May-21 00:29N 53°27' E 006°51'0 0.0
2016-May-20 23:32N 53°27' E 006°51'0 0.0
2016-May-20 22:32N 53°27' E 006°51'0 0.0
2016-May-20 21:32N 53°27' E 006°51'0 0.0
2016-May-20 20:31N 53°27' E 006°51'0 0.0
2016-May-20 19:31N 53°27' E 006°51'0 0.0
2016-May-20 18:32N 53°27' E 006°51'0 0.0
2016-May-20 17:31N 53°27' E 006°51'0 0.0
2016-May-20 16:31N 53°27' E 006°51'0 0.0
2016-May-20 15:31N 53°27' E 006°51'0 0.0
2016-May-20 14:31N 53°27' E 006°51'0 0.0
2016-May-20 13:28N 53°27' E 006°51'0 0.0
2016-May-20 12:31N 53°27' E 006°51'0 0.0
2016-May-20 11:32N 53°27' E 006°51'0 0.0
2016-May-20 10:31N 53°27' E 006°51'0 0.0
2016-May-20 09:28N 53°27' E 006°51'0 0.0
2016-May-20 08:33N 53°27' E 006°51'8 7.9
2016-May-20 07:33N 53°32' E 006°43'1212.4
2016-May-20 06:33N 53°37' E 006°23'1312.5
2016-May-20 05:33N 53°38' E 006°02'1212.4
2016-May-20 04:33N 53°36' E 005°42'1312.7
2016-May-20 03:34N 53°32' E 005°21'1212.4
2016-May-20 02:33N 53°28' E 005°01'2711.1
2016-May-20 00:08N 53°09' E 004°30'611.0
2016-May-19 23:33N 53°03' E 004°25'1110.8
2016-May-19 22:33N 52°54' E 004°17'1110.7
2016-May-19 21:33N 52°44' E 004°08'1310.3
2016-May-19 20:18N 52°35' E 003°53'910.2
2016-May-19 19:25N 52°29' E 003°42'1010.3
2016-May-19 18:29N 52°22' E 003°31'1010.6
2016-May-19 17:30N 52°15' E 003°20'2411.4
2016-May-19 15:24N 51°57' E 002°53'1212.1
2016-May-19 14:25N 51°48' E 002°41'1212.4
2016-May-19 13:29N 51°39' E 002°29'1312.8
2016-May-19 12:30N 51°29' E 002°16'1212.6
2016-May-19 11:33N 51°18' E 002°07'1312.7
2016-May-19 10:33N 51°09' E 001°53'1313.3
2016-May-19 09:33N 51°01' E 001°37'5611.2
2016-May-19 04:32N 50°26' E 000°27'1110.8
2016-May-19 03:31N 50°23' E 000°10'1010.3
2016-May-19 02:33N 50°20' W 000°05'10 9.8
2016-May-19 01:33N 50°18' W 000°20'9111.3
2016-May-18 17:27N 49°54' W 002°37'1212.9
2016-May-18 16:33N 49°51' W 002°54'1212.4
2016-May-18 15:34N 49°52' W 003°14'1212.0
2016-May-18 14:33N 49°52' W 003°32'1211.6
2016-May-18 13:33N 49°53' W 003°50'1411.2
2016-May-18 12:19N 49°53' W 004°12'811.0
2016-May-18 11:34N 49°54' W 004°24'1310.9
2016-May-18 10:25N 49°54' W 004°44'1010.7
2016-May-18 09:29N 49°54' W 004°59'2210.3
2016-May-18 07:22N 49°55' W 005°33'28 8.6
2016-May-18 04:09N 50°16' W 006°02'9511.0
2016-May-17 19:32N 51°26' W 007°44'1110.7
2016-May-17 18:33N 51°33' W 007°55'1110.9
2016-May-17 17:33N 51°41' W 008°08'1110.7
2016-May-17 16:33N 51°50' W 008°16'8 7.7
2016-May-17 15:32N 51°54' W 008°27'0 0.0
2016-May-17 14:32N 51°54' W 008°27'0 0.0
2016-May-17 13:32N 51°54' W 008°27'0 0.0
2016-May-17 12:32N 51°54' W 008°27'0 0.0
2016-May-17 11:31N 51°54' W 008°27'0 0.0
2016-May-17 10:31N 51°54' W 008°27'0 0.0
2016-May-17 09:28N 51°54' W 008°27'0 0.0
2016-May-17 08:31N 51°54' W 008°27'0 0.0
2016-May-17 07:31N 51°54' W 008°27'0 0.0
2016-May-17 06:31N 51°54' W 008°27'0 0.0
2016-May-17 05:28N 51°54' W 008°27'0 0.0
2016-May-17 04:28N 51°54' W 008°27'0 0.0
2016-May-17 03:31N 51°54' W 008°27'0 0.0
2016-May-17 02:28N 51°54' W 008°27'0 0.0
2016-May-17 01:31N 51°54' W 008°27'0 0.0
2016-May-17 00:31N 51°54' W 008°27'0 0.0
2016-May-16 23:28N 51°54' W 008°27'0 0.0
2016-May-16 22:28N 51°54' W 008°27'0 0.0
2016-May-16 21:28N 51°54' W 008°27'4 4.2
2016-May-16 20:33N 51°53' W 008°21'4 4.1
2016-May-16 19:32N 51°50' W 008°16'0 0.1
2016-May-16 18:32N 51°50' W 008°16'0 0.0
2016-May-16 17:32N 51°50' W 008°16'0 0.0
2016-May-16 16:32N 51°50' W 008°16'0 0.0
2016-May-16 15:32N 51°50' W 008°16'0 0.1
2016-May-16 14:32N 51°50' W 008°16'0 0.0
2016-May-16 13:32N 51°50' W 008°16'4 4.4
2016-May-16 12:33N 51°46' W 008°14'9 9.1
2016-May-16 11:33N 51°40' W 008°04'9 9.3
2016-May-16 10:33N 51°33' W 007°53'9 9.3
2016-May-16 09:33N 51°26' W 007°43'  
Track history (hours):
 
Tides and Currents Weather Stations Pressure Air Temp Water Temp Dewpoint Dewpoint Depression Visibility Wind Speed Wind Dir Waves Ship Positions

Panda

Last reported at 2016-May-26 06:32 UTC. Time now 2016-May-26 06:52 UTC.
Position N 55°59' W 003°10'.

Length 89 m; draft 3.9 m.

Type: Cargo ship. MMSI: 245014000.

Date/timePositionNaut miles runAvg speedWind from/ knotsBaromVisibWave heightAir tempDewpointWater temp
2016-May-26 06:32N 55°59' W 003°10'0 0.0
2016-May-26 05:32N 55°59' W 003°10'0 0.0
2016-May-26 04:32N 55°59' W 003°10'0 0.0
2016-May-26 03:32N 55°59' W 003°10'0 0.0
2016-May-26 02:32N 55°59' W 003°10'0 0.0
2016-May-26 01:32N 55°59' W 003°10'0 0.0
2016-May-26 00:32N 55°59' W 003°10'0 0.0
2016-May-25 23:32N 55°59' W 003°10'0 0.0
2016-May-25 22:32N 55°59' W 003°10'0 0.0
2016-May-25 21:32N 55°59' W 003°10'0 0.0
2016-May-25 20:32N 55°59' W 003°10'0 0.0
2016-May-25 19:32N 55°59' W 003°10'0 0.0
2016-May-25 18:32N 55°59' W 003°10'0 0.0
2016-May-25 17:32N 55°59' W 003°10'0 0.0
2016-May-25 16:32N 55°59' W 003°10'0 0.0
2016-May-25 15:32N 55°59' W 003°10'0 0.0
2016-May-25 14:32N 55°59' W 003°10'0 0.0
2016-May-25 13:32N 55°59' W 003°10'0 0.0
2016-May-25 12:32N 55°59' W 003°10'0 0.0
2016-May-25 11:32N 55°59' W 003°10'0 0.0
2016-May-25 10:32N 55°59' W 003°10'0 0.0
2016-May-25 09:32N 55°59' W 003°10'0 0.0
2016-May-25 08:32N 55°59' W 003°10'0 0.0
2016-May-25 07:32N 55°59' W 003°10'0 0.0
2016-May-25 06:32N 55°59' W 003°10'0 0.0
2016-May-25 05:32N 55°59' W 003°10'0 0.0
2016-May-25 04:32N 55°59' W 003°10'0 0.0
2016-May-25 03:31N 55°59' W 003°10'0 0.0
2016-May-25 02:31N 55°59' W 003°10'0 0.0
2016-May-25 01:31N 55°59' W 003°10'0 0.0
2016-May-25 00:31N 55°59' W 003°10'0 0.0
2016-May-24 23:31N 55°59' W 003°10'0 0.0
2016-May-24 22:31N 55°59' W 003°10'0 0.0
2016-May-24 21:31N 55°59' W 003°10'0 0.0
2016-May-24 20:31N 55°59' W 003°10'0 0.0
2016-May-24 19:31N 55°59' W 003°10'0 0.0
2016-May-24 18:31N 55°59' W 003°10'0 0.0
2016-May-24 17:31N 55°59' W 003°10'0 0.0
2016-May-24 16:31N 55°59' W 003°10'0 0.0
2016-May-24 15:31N 55°59' W 003°10'0 0.0
2016-May-24 14:31N 55°59' W 003°10'0 0.0
2016-May-24 13:31N 55°59' W 003°10'0 0.0
2016-May-24 12:31N 55°59' W 003°10'0 0.0
2016-May-24 11:31N 55°59' W 003°10'0 0.0
2016-May-24 10:31N 55°59' W 003°10'0 0.0
2016-May-24 09:31N 55°59' W 003°10'0 0.0
2016-May-24 08:31N 55°59' W 003°10'0 0.0
2016-May-24 07:31N 55°59' W 003°10'0 0.0
2016-May-24 06:31N 55°59' W 003°10'0 0.0
2016-May-24 05:31N 55°59' W 003°10'0 0.0
2016-May-24 04:31N 55°59' W 003°10'0 0.0
2016-May-24 03:31N 55°59' W 003°10'0 0.0
2016-May-24 02:31N 55°59' W 003°10'0 0.0
2016-May-24 01:31N 55°59' W 003°10'0 0.0
2016-May-24 00:31N 55°59' W 003°10'0 0.0
2016-May-23 23:31N 55°59' W 003°10'0 0.0
2016-May-23 22:31N 55°59' W 003°10'0 0.0
2016-May-23 21:31N 55°59' W 003°10'0 0.0
2016-May-23 20:31N 55°59' W 003°10'0 0.0
2016-May-23 19:31N 55°59' W 003°10'0 0.0
2016-May-23 18:31N 55°59' W 003°10'0 0.0
2016-May-23 17:34N 55°59' W 003°10'0 0.0
2016-May-23 16:33N 55°59' W 003°10'0 0.0
2016-May-23 15:33N 55°59' W 003°10'0 0.0
2016-May-23 14:33N 55°59' W 003°10'0 0.0
2016-May-23 13:33N 55°59' W 003°10'1 0.6
2016-May-23 12:33N 55°59' W 003°11'4 3.5
2016-May-23 11:32N 56°02' W 003°07'0 0.0
2016-May-23 10:32N 56°02' W 003°07'1 0.8
2016-May-23 09:33N 56°02' W 003°05'1010.5
2016-May-23 08:33N 56°06' W 002°47'10 9.8
2016-May-23 07:33N 56°04' W 002°30'1010.2
2016-May-23 06:33N 55°60' W 002°13'10 9.8
2016-May-23 05:30N 55°55' W 001°57'26210.5
2016-May-22 04:33N 54°08' E 005°01'10 9.9
2016-May-22 03:33N 54°00' E 005°12'1111.4
2016-May-22 02:33N 53°56' E 005°30'1211.9
2016-May-22 01:33N 53°51' E 005°48'1211.6
2016-May-22 00:33N 53°47' E 006°07'1010.1
2016-May-21 23:33N 53°39' E 006°17'1110.7
2016-May-21 22:33N 53°36' E 006°34'1010.2
2016-May-21 21:34N 53°30' E 006°48'4 4.1
2016-May-21 20:31N 53°26' E 006°51'0 0.0
2016-May-21 19:31N 53°26' E 006°51'0 0.0
2016-May-21 18:31N 53°26' E 006°51'0 0.0
2016-May-21 17:31N 53°26' E 006°51'0 0.0
2016-May-21 16:31N 53°26' E 006°51'0 0.0
2016-May-21 15:31N 53°26' E 006°51'0 0.0
2016-May-21 14:31N 53°26' E 006°51'0 0.0
2016-May-21 13:31N 53°26' E 006°51'0 0.0
2016-May-21 12:31N 53°26' E 006°51'0 0.0
2016-May-21 11:31N 53°26' E 006°51'0 0.0
2016-May-21 10:31N 53°26' E 006°51'0 0.0
2016-May-21 09:34N 53°26' E 006°51'0 0.0
2016-May-21 08:33N 53°27' E 006°51'0 0.0
2016-May-21 07:34N 53°27' E 006°51'0 0.0
2016-May-21 06:33N 53°27' E 006°51'0 0.0
2016-May-21 05:32N 53°27' E 006°51'0 0.0
2016-May-21 04:32N 53°27' E 006°51'0 0.0
2016-May-21 03:32N 53°27' E 006°51'0 0.0
2016-May-21 02:32N 53°27' E 006°51'0 0.0
2016-May-21 01:32N 53°27' E 006°51'0 0.0
2016-May-21 00:29N 53°27' E 006°51'0 0.0
2016-May-20 23:32N 53°27' E 006°51'0 0.0
2016-May-20 22:32N 53°27' E 006°51'0 0.0
2016-May-20 21:32N 53°27' E 006°51'0 0.0
2016-May-20 20:31N 53°27' E 006°51'0 0.0
2016-May-20 19:31N 53°27' E 006°51'0 0.0
2016-May-20 18:32N 53°27' E 006°51'0 0.0
2016-May-20 17:31N 53°27' E 006°51'0 0.0
2016-May-20 16:31N 53°27' E 006°51'0 0.0
2016-May-20 15:31N 53°27' E 006°51'0 0.0
2016-May-20 14:31N 53°27' E 006°51'0 0.0
2016-May-20 13:28N 53°27' E 006°51'0 0.0
2016-May-20 12:31N 53°27' E 006°51'0 0.0
2016-May-20 11:32N 53°27' E 006°51'0 0.0
2016-May-20 10:31N 53°27' E 006°51'0 0.0
2016-May-20 09:28N 53°27' E 006°51'0 0.0
2016-May-20 08:33N 53°27' E 006°51'8 7.9
2016-May-20 07:33N 53°32' E 006°43'1212.4
2016-May-20 06:33N 53°37' E 006°23'1312.5
2016-May-20 05:33N 53°38' E 006°02'1212.4
2016-May-20 04:33N 53°36' E 005°42'1312.7
2016-May-20 03:34N 53°32' E 005°21'1212.4
2016-May-20 02:33N 53°28' E 005°01'2711.1
2016-May-20 00:08N 53°09' E 004°30'611.0
2016-May-19 23:33N 53°03' E 004°25'1110.8
2016-May-19 22:33N 52°54' E 004°17'1110.7
2016-May-19 21:33N 52°44' E 004°08'1310.3
2016-May-19 20:18N 52°35' E 003°53'910.2
2016-May-19 19:25N 52°29' E 003°42'1010.3
2016-May-19 18:29N 52°22' E 003°31'1010.6
2016-May-19 17:30N 52°15' E 003°20'2411.4
2016-May-19 15:24N 51°57' E 002°53'1212.1
2016-May-19 14:25N 51°48' E 002°41'1212.4
2016-May-19 13:29N 51°39' E 002°29'1312.8
2016-May-19 12:30N 51°29' E 002°16'1212.6
2016-May-19 11:33N 51°18' E 002°07'1312.7
2016-May-19 10:33N 51°09' E 001°53'1313.3
2016-May-19 09:33N 51°01' E 001°37'5611.2
2016-May-19 04:32N 50°26' E 000°27'1110.8
2016-May-19 03:31N 50°23' E 000°10'1010.3
2016-May-19 02:33N 50°20' W 000°05'10 9.8
2016-May-19 01:33N 50°18' W 000°20'9111.3
2016-May-18 17:27N 49°54' W 002°37'1212.9
2016-May-18 16:33N 49°51' W 002°54'1212.4
2016-May-18 15:34N 49°52' W 003°14'1212.0
2016-May-18 14:33N 49°52' W 003°32'1211.6
2016-May-18 13:33N 49°53' W 003°50'1411.2
2016-May-18 12:19N 49°53' W 004°12'811.0
2016-May-18 11:34N 49°54' W 004°24'1310.9
2016-May-18 10:25N 49°54' W 004°44'1010.7
2016-May-18 09:29N 49°54' W 004°59'2210.3
2016-May-18 07:22N 49°55' W 005°33'28 8.6
2016-May-18 04:09N 50°16' W 006°02'9511.0
2016-May-17 19:32N 51°26' W 007°44'1110.7
2016-May-17 18:33N 51°33' W 007°55'1110.9
2016-May-17 17:33N 51°41' W 008°08'1110.7
2016-May-17 16:33N 51°50' W 008°16'8 7.7
2016-May-17 15:32N 51°54' W 008°27'0 0.0
2016-May-17 14:32N 51°54' W 008°27'0 0.0
2016-May-17 13:32N 51°54' W 008°27'0 0.0
2016-May-17 12:32N 51°54' W 008°27'0 0.0
2016-May-17 11:31N 51°54' W 008°27'0 0.0
2016-May-17 10:31N 51°54' W 008°27'0 0.0
2016-May-17 09:28N 51°54' W 008°27'0 0.0
2016-May-17 08:31N 51°54' W 008°27'0 0.0
2016-May-17 07:31N 51°54' W 008°27'0 0.0
2016-May-17 06:31N 51°54' W 008°27'0 0.0
2016-May-17 05:28N 51°54' W 008°27'0 0.0
2016-May-17 04:28N 51°54' W 008°27'0 0.0
2016-May-17 03:31N 51°54' W 008°27'0 0.0
2016-May-17 02:28N 51°54' W 008°27'0 0.0
2016-May-17 01:31N 51°54' W 008°27'0 0.0
2016-May-17 00:31N 51°54' W 008°27'0 0.0
2016-May-16 23:28N 51°54' W 008°27'0 0.0
2016-May-16 22:28N 51°54' W 008°27'0 0.0
2016-May-16 21:28N 51°54' W 008°27'4 4.2
2016-May-16 20:33N 51°53' W 008°21'4 4.1
2016-May-16 19:32N 51°50' W 008°16'0 0.1
2016-May-16 18:32N 51°50' W 008°16'0 0.0
2016-May-16 17:32N 51°50' W 008°16'0 0.0
2016-May-16 16:32N 51°50' W 008°16'0 0.0
2016-May-16 15:32N 51°50' W 008°16'0 0.1
2016-May-16 14:32N 51°50' W 008°16'0 0.0
2016-May-16 13:32N 51°50' W 008°16'4 4.4
2016-May-16 12:33N 51°46' W 008°14'9 9.1
2016-May-16 11:33N 51°40' W 008°04'9 9.3
2016-May-16 10:33N 51°33' W 007°53'9 9.3
2016-May-16 09:33N 51°26' W 007°43'  

Dump ship's entire track history